Time;durP1;ratioP1;P1;durP2;ratioP2;P2;SDS_P1;SDS_P2;PMS_P1;PMS_P2;Temp;Humidity;BMP_temperature;BMP_pressure;BME280_temperature;BME280_humidity;BME280_pressure;Samples;Min_cycle;Max_cycle;Signal;HPM_P1;HPM_P2
2022/01/10 00:00:07;;;;;;;4.10;2.37;;;4.50;99.90;;;;;;5038920;28;20209;-71
2022/01/10 00:02:35;;;;;;;4.60;2.50;;;4.50;99.90;;;;;;5036375;28;20177;-74
2022/01/10 00:05:03;;;;;;;6.50;2.37;;;4.40;99.90;;;;;;5037948;28;20233;-73
2022/01/10 00:07:31;;;;;;;7.20;2.77;;;4.40;99.90;;;;;;5034983;28;20201;-73
2022/01/10 00:09:58;;;;;;;4.27;2.20;;;4.30;99.90;;;;;;5041101;28;20270;-70
2022/01/10 00:12:29;;;;;;;6.23;2.37;;;4.30;99.90;;;;;;5034730;28;20415;-71
2022/01/10 00:14:54;;;;;;;3.77;2.00;;;4.20;99.90;;;;;;5036570;28;20189;-69
2022/01/10 00:17:25;;;;;;;6.00;2.47;;;4.20;99.90;;;;;;5035785;28;20231;-73
2022/01/10 00:19:50;;;;;;;5.43;2.43;;;4.20;99.90;;;;;;5035921;28;20346;-72
2022/01/10 00:22:16;;;;;;;6.67;2.27;;;4.10;99.90;;;;;;5033965;28;20292;-74
2022/01/10 00:24:44;;;;;;;5.10;2.53;;;4.10;99.90;;;;;;5039306;28;20177;-72
2022/01/10 00:27:09;;;;;;;3.07;2.17;;;4.10;99.90;;;;;;5038361;28;20183;-73
2022/01/10 00:29:37;;;;;;;5.87;3.20;;;4.00;99.90;;;;;;5038569;28;20181;-72
2022/01/10 00:32:03;;;;;;;5.43;2.53;;;3.90;99.90;;;;;;5035989;28;20192;-72
2022/01/10 00:34:29;;;;;;;5.30;2.30;;;3.90;99.90;;;;;;5053432;28;20205;-68
2022/01/10 00:36:54;;;;;;;4.57;2.33;;;3.90;99.90;;;;;;5036186;28;20334;-71
2022/01/10 00:39:22;;;;;;;4.77;2.27;;;3.90;99.90;;;;;;5037284;28;20201;-71
2022/01/10 00:41:48;;;;;;;5.20;2.50;;;3.80;99.90;;;;;;5036491;28;20181;-72
2022/01/10 00:44:14;;;;;;;5.40;2.40;;;3.80;99.90;;;;;;5037267;28;20268;-72
2022/01/10 00:46:42;;;;;;;4.97;2.33;;;3.80;99.90;;;;;;5037042;28;20178;-72
2022/01/10 00:49:08;;;;;;;4.60;2.50;;;3.70;99.90;;;;;;5044780;28;20282;-71
2022/01/10 00:51:34;;;;;;;4.07;2.20;;;3.70;99.90;;;;;;5038472;28;20292;-73
2022/01/10 00:54:02;;;;;;;4.47;2.30;;;3.70;99.90;;;;;;5035872;28;20208;-71
2022/01/10 00:56:28;;;;;;;4.67;2.30;;;3.70;99.90;;;;;;5036183;28;20182;-72
2022/01/10 00:58:53;;;;;;;4.73;2.57;;;3.70;99.90;;;;;;5035674;28;20219;-73
2022/01/10 01:01:19;;;;;;;4.07;2.33;;;3.60;99.90;;;;;;5042809;28;20281;-73
2022/01/10 01:03:46;;;;;;;5.37;2.17;;;3.60;99.90;;;;;;5039510;28;20225;-74
2022/01/10 01:06:14;;;;;;;5.63;2.37;;;3.60;99.90;;;;;;5033823;28;20197;-68
2022/01/10 01:08:41;;;;;;;5.17;2.40;;;3.60;99.90;;;;;;5047465;28;20271;-74
2022/01/10 01:13:57;;;;;;;4.63;2.57;;;3.50;99.90;;;;;;5053118;28;20189;-73
2022/01/10 01:17:08;;;;;;;6.30;2.67;;;3.50;99.90;;;;;;5053363;28;20211;-73
2022/01/10 01:24:35;;;;;;;5.27;2.23;;;3.40;99.90;;;;;;5053673;28;20208;-73
2022/01/10 01:27:00;;;;;;;4.50;2.50;;;3.40;99.90;;;;;;5039281;28;20197;-73
2022/01/10 01:29:30;;;;;;;6.97;2.40;;;3.40;99.90;;;;;;5044576;28;20177;-73
2022/01/10 01:31:59;;;;;;;4.57;2.20;;;3.40;99.90;;;;;;5038188;28;20193;-72
2022/01/10 01:34:27;;;;;;;5.63;2.33;;;3.40;99.90;;;;;;5041645;28;20233;-73
2022/01/10 01:36:55;;;;;;;6.03;2.30;;;3.40;99.90;;;;;;5036436;28;20195;-71
2022/01/10 01:39:25;;;;;;;6.20;2.60;;;3.30;99.90;;;;;;5045607;28;20212;-73
2022/01/10 01:42:06;;;;;;;3.77;2.70;;;3.30;99.90;;;;;;5041333;28;20189;-72
2022/01/10 01:44:39;;;;;;;4.37;2.30;;;3.30;99.90;;;;;;5037021;28;20185;-66
2022/01/10 01:47:05;;;;;;;5.70;2.50;;;3.30;99.90;;;;;;5036144;28;20213;-71
2022/01/10 01:49:30;;;;;;;3.63;2.00;;;3.20;99.90;;;;;;5038972;28;20219;-73
2022/01/10 01:51:58;;;;;;;8.17;2.77;;;3.20;99.90;;;;;;5035918;28;20233;-72
2022/01/10 01:54:26;;;;;;;3.77;2.27;;;3.20;99.90;;;;;;5045970;28;20181;-69
2022/01/10 01:56:57;;;;;;;4.20;2.47;;;3.20;99.90;;;;;;5055512;28;20173;-73
2022/01/10 01:59:23;;;;;;;3.83;2.13;;;3.20;99.90;;;;;;5054372;28;20295;-72
2022/01/10 02:01:48;;;;;;;4.77;2.53;;;3.10;99.90;;;;;;5056157;28;20189;-72
2022/01/10 02:04:14;;;;;;;3.17;2.03;;;3.10;99.90;;;;;;5039243;28;20212;-72
2022/01/10 02:06:42;;;;;;;5.70;2.50;;;3.10;99.90;;;;;;5043971;28;20238;-73
2022/01/10 02:09:14;;;;;;;4.33;2.10;;;3.10;99.90;;;;;;5039247;28;20209;-71
2022/01/10 02:11:40;;;;;;;4.90;3.07;;;3.10;99.90;;;;;;5051268;28;20234;-73
2022/01/10 02:14:08;;;;;;;5.47;2.47;;;3.10;99.90;;;;;;5054862;28;20181;-70
2022/01/10 02:16:45;;;;;;;3.20;2.13;;;3.10;99.90;;;;;;5055092;28;20220;-70
2022/01/10 02:19:11;;;;;;;4.00;2.30;;;3.20;99.90;;;;;;5046510;28;20265;-73
2022/01/10 02:21:39;;;;;;;3.63;2.47;;;3.20;99.90;;;;;;5040865;28;20217;-73
2022/01/10 02:24:10;;;;;;;5.23;2.53;;;3.20;99.90;;;;;;5040830;28;20251;-73
2022/01/10 02:26:39;;;;;;;3.50;2.10;;;3.30;99.90;;;;;;5032607;28;20173;-73
2022/01/10 02:29:07;;;;;;;4.60;2.70;;;3.30;99.90;;;;;;5047771;28;20199;-70
2022/01/10 02:31:39;;;;;;;5.00;2.43;;;3.30;99.90;;;;;;5044455;28;20220;-71
2022/01/10 02:34:05;;;;;;;5.50;2.27;;;3.40;99.90;;;;;;5044993;28;20216;-71
2022/01/10 02:36:35;;;;;;;3.33;2.20;;;3.40;99.90;;;;;;5038356;28;20185;-74
2022/01/10 02:39:06;;;;;;;4.87;2.20;;;3.40;99.90;;;;;;5037786;28;20228;-71
2022/01/10 02:41:35;;;;;;;5.40;2.40;;;3.50;99.90;;;;;;5039182;28;20185;-71
2022/01/10 02:44:13;;;;;;;4.03;2.10;;;3.50;99.90;;;;;;5034273;28;20182;-73
2022/01/10 02:46:45;;;;;;;4.50;2.33;;;3.50;99.90;;;;;;5052995;28;20306;-71
2022/01/10 02:49:16;;;;;;;3.17;2.00;;;3.40;99.90;;;;;;5041854;28;20181;-73
2022/01/10 02:51:42;;;;;;;4.37;2.23;;;3.40;99.90;;;;;;5042463;28;20201;-73
2022/01/10 02:54:12;;;;;;;5.13;2.40;;;3.40;99.90;;;;;;5036841;28;20192;-70
2022/01/10 02:56:49;;;;;;;5.03;1.90;;;3.40;99.90;;;;;;5041006;28;20205;-67
2022/01/10 02:59:18;;;;;;;4.90;1.97;;;3.40;99.90;;;;;;5045239;28;20293;-73
2022/01/10 03:01:47;;;;;;;5.17;2.10;;;3.30;99.90;;;;;;5036891;28;20177;-73
2022/01/10 03:04:15;;;;;;;3.43;2.00;;;3.30;99.90;;;;;;5039517;28;20188;-74
2022/01/10 03:06:41;;;;;;;3.67;2.20;;;3.30;99.90;;;;;;5030600;28;20189;-73
2022/01/10 03:09:07;;;;;;;4.17;2.37;;;3.20;99.90;;;;;;5036940;28;20213;-73
2022/01/10 03:11:33;;;;;;;4.17;2.17;;;3.20;99.90;;;;;;5034046;28;20191;-73
2022/01/10 03:14:00;;;;;;;5.47;2.10;;;3.20;99.90;;;;;;5055001;28;20256;-73
2022/01/10 03:16:28;;;;;;;3.47;2.37;;;3.20;99.90;;;;;;5042006;28;20239;-73
2022/01/10 03:18:54;;;;;;;4.13;2.00;;;3.10;99.90;;;;;;5035745;28;20209;-68
2022/01/10 03:21:20;;;;;;;4.23;2.17;;;3.10;99.90;;;;;;5038922;28;20247;-73
2022/01/10 03:23:51;;;;;;;3.77;1.80;;;3.00;99.90;;;;;;5044308;28;20177;-72
2022/01/10 03:26:20;;;;;;;4.77;2.00;;;3.00;99.90;;;;;;5035292;28;20185;-74
2022/01/10 03:28:46;;;;;;;3.17;2.07;;;3.00;99.90;;;;;;5054555;28;20212;-72
2022/01/10 03:31:17;;;;;;;3.67;1.80;;;2.90;99.90;;;;;;5036523;28;20221;-71
2022/01/10 03:33:46;;;;;;;3.80;2.20;;;2.90;99.90;;;;;;5035365;28;20181;-73
2022/01/10 03:36:14;;;;;;;4.07;2.10;;;2.90;99.90;;;;;;5039322;28;20195;-73
2022/01/10 03:38:41;;;;;;;4.07;1.90;;;2.80;99.90;;;;;;5036466;28;20212;-68
2022/01/10 03:41:11;;;;;;;3.30;1.90;;;2.80;99.90;;;;;;5042695;28;20197;-71
2022/01/10 03:43:37;;;;;;;4.53;2.10;;;2.80;99.90;;;;;;5038895;28;20192;-72
2022/01/10 03:46:02;;;;;;;4.33;2.37;;;2.70;99.90;;;;;;5038118;28;20185;-72
2022/01/10 03:48:30;;;;;;;5.60;2.10;;;2.70;99.90;;;;;;5036657;28;20192;-73
2022/01/10 03:50:57;;;;;;;4.67;2.20;;;2.70;99.90;;;;;;5035845;28;20259;-72
2022/01/10 03:53:23;;;;;;;2.83;1.73;;;2.60;99.90;;;;;;5037293;28;20292;-72
2022/01/10 03:55:51;;;;;;;4.77;2.03;;;2.60;99.90;;;;;;5033640;28;20280;-73
2022/01/10 03:58:16;;;;;;;2.87;1.80;;;2.60;99.90;;;;;;5028886;28;20205;-73
2022/01/10 04:00:46;;;;;;;2.33;1.80;;;2.60;99.90;;;;;;5046957;28;20178;-73
2022/01/10 04:03:14;;;;;;;3.30;1.67;;;2.50;99.90;;;;;;5040385;28;20212;-73
2022/01/10 04:05:40;;;;;;;5.00;2.17;;;2.50;99.90;;;;;;5037807;28;20206;-74
2022/01/10 04:08:08;;;;;;;3.27;1.83;;;2.50;99.90;;;;;;5039031;28;20186;-73
2022/01/10 04:10:39;;;;;;;3.73;1.87;;;2.50;99.90;;;;;;5028850;28;20203;-72
2022/01/10 04:13:07;;;;;;;4.33;1.80;;;2.50;99.90;;;;;;5052093;28;20204;-73
2022/01/10 04:15:35;;;;;;;3.77;2.10;;;2.50;99.90;;;;;;5037454;28;20205;-74
2022/01/10 04:18:02;;;;;;;2.07;1.63;;;2.50;99.90;;;;;;5055221;28;20201;-69
2022/01/10 04:20:28;;;;;;;6.57;2.17;;;2.40;99.90;;;;;;5035271;28;20185;-73
2022/01/10 04:22:59;;;;;;;3.53;1.97;;;2.40;99.90;;;;;;5053286;28;20367;-73
2022/01/10 04:25:24;;;;;;;3.83;2.37;;;2.40;99.90;;;;;;5032190;28;20185;-73
2022/01/10 04:27:50;;;;;;;2.53;1.93;;;2.40;99.90;;;;;;5042497;28;20197;-70
2022/01/10 04:30:18;;;;;;;7.00;2.43;;;2.40;99.90;;;;;;5035558;28;20352;-73
2022/01/10 04:32:44;;;;;;;3.87;1.93;;;2.40;99.90;;;;;;5036326;28;20208;-73
2022/01/10 04:35:13;;;;;;;4.90;2.23;;;2.30;99.90;;;;;;5037160;28;20223;-73
2022/01/10 04:37:41;;;;;;;6.43;2.90;;;2.30;99.90;;;;;;5039449;28;20216;-72
2022/01/10 04:40:09;;;;;;;5.47;2.50;;;2.30;99.90;;;;;;5035536;28;20256;-73
2022/01/10 04:42:38;;;;;;;6.63;2.80;;;2.40;99.90;;;;;;5042562;28;20183;-73
2022/01/10 04:45:06;;;;;;;27.53;18.63;;;2.40;99.90;;;;;;5032757;28;20205;-64
2022/01/10 04:47:32;;;;;;;9.67;6.77;;;2.40;99.90;;;;;;5037820;28;20235;-74
2022/01/10 04:52:27;;;;;;;6.70;3.57;;;2.40;99.90;;;;;;5056737;28;20284;-74
2022/01/10 04:54:53;;;;;;;6.23;3.13;;;2.40;99.90;;;;;;5039118;28;20192;-73
2022/01/10 04:57:22;;;;;;;5.43;2.80;;;2.40;99.90;;;;;;5039639;28;20205;-72
2022/01/10 04:59:48;;;;;;;3.67;2.53;;;2.40;99.90;;;;;;5039176;28;20204;-72
2022/01/10 05:02:14;;;;;;;3.63;2.23;;;2.40;99.90;;;;;;5048178;28;20231;-73
2022/01/10 05:04:40;;;;;;;5.23;2.30;;;2.40;99.90;;;;;;5046894;28;20426;-72
2022/01/10 05:07:08;;;;;;;4.73;2.33;;;2.40;99.90;;;;;;5056717;28;20217;-71
2022/01/10 05:09:34;;;;;;;5.17;2.53;;;2.40;99.90;;;;;;5041280;28;20209;-74
2022/01/10 05:12:03;;;;;;;5.90;2.43;;;2.40;99.90;;;;;;5062280;28;20215;-73
2022/01/10 05:14:29;;;;;;;3.83;2.13;;;2.40;99.90;;;;;;5037334;28;20204;-71
2022/01/10 05:16:57;;;;;;;5.47;2.50;;;2.40;99.90;;;;;;5039501;28;20262;-72
2022/01/10 05:19:22;;;;;;;5.23;2.30;;;2.40;99.90;;;;;;5038180;28;20232;-72
2022/01/10 05:21:50;;;;;;;5.77;2.13;;;2.40;99.90;;;;;;5039010;28;20201;-72
2022/01/10 05:24:16;;;;;;;4.57;2.03;;;2.40;99.90;;;;;;5039810;28;20177;-73
2022/01/10 05:26:44;;;;;;;5.40;3.20;;;2.50;99.90;;;;;;5039340;28;20276;-72
2022/01/10 05:29:09;;;;;;;9.87;5.83;;;2.50;99.90;;;;;;5037967;28;20188;-71
2022/01/10 05:31:38;;;;;;;6.70;3.60;;;2.50;99.90;;;;;;5044271;28;20189;-74
2022/01/10 05:34:03;;;;;;;5.87;3.07;;;2.60;99.90;;;;;;5037475;28;20190;-73
2022/01/10 05:36:29;;;;;;;8.13;3.57;;;2.60;99.90;;;;;;5039593;28;20189;-74
2022/01/10 05:38:57;;;;;;;5.77;3.00;;;2.60;99.90;;;;;;5041019;28;20231;-71
2022/01/10 05:41:25;;;;;;;4.43;2.83;;;2.70;99.90;;;;;;5037602;28;20269;-73
2022/01/10 05:43:51;;;;;;;4.33;2.20;;;2.70;99.90;;;;;;5031639;28;20181;-69
2022/01/10 05:46:19;;;;;;;5.30;2.80;;;2.80;99.90;;;;;;5041657;28;20174;-73
2022/01/10 05:48:47;;;;;;;5.83;3.37;;;2.80;99.90;;;;;;5038258;28;20428;-71
2022/01/10 05:51:16;;;;;;;5.53;3.60;;;2.90;99.90;;;;;;5040135;28;20259;-74
2022/01/10 05:53:44;;;;;;;6.83;2.97;;;2.90;99.90;;;;;;5039116;28;20185;-70
2022/01/10 05:56:10;;;;;;;5.57;2.60;;;3.00;99.90;;;;;;5039965;28;20198;-74
2022/01/10 05:58:36;;;;;;;5.53;2.67;;;3.00;99.90;;;;;;5037918;28;20254;-70
2022/01/10 06:01:02;;;;;;;4.60;2.40;;;3.00;99.90;;;;;;5043810;28;20211;-73
2022/01/10 06:03:32;;;;;;;6.13;2.90;;;3.10;99.90;;;;;;5038425;28;20189;-68
2022/01/10 06:05:57;;;;;;;4.73;2.60;;;3.10;99.90;;;;;;5032498;28;20295;-71
2022/01/10 06:08:23;;;;;;;5.00;2.83;;;3.10;99.90;;;;;;5036603;28;20209;-70
2022/01/10 06:10:49;;;;;;;4.77;3.10;;;3.20;99.90;;;;;;5038470;28;20177;-67
2022/01/10 06:13:19;;;;;;;5.63;3.00;;;3.20;99.90;;;;;;5037732;28;20207;-69
2022/01/10 06:15:45;;;;;;;5.33;2.50;;;3.20;99.90;;;;;;5037127;28;20186;-69
2022/01/10 06:18:10;;;;;;;4.80;2.80;;;3.20;99.90;;;;;;5035799;28;20189;-70
2022/01/10 06:20:36;;;;;;;5.30;3.07;;;3.20;99.90;;;;;;5054185;28;20219;-69
2022/01/10 06:23:02;;;;;;;4.63;2.60;;;3.30;99.90;;;;;;5036512;28;20182;-69
2022/01/10 06:25:28;;;;;;;6.13;3.07;;;3.30;99.90;;;;;;5047780;28;20432;-68
2022/01/10 06:27:54;;;;;;;5.00;2.77;;;3.30;99.90;;;;;;5038299;28;20196;-70
2022/01/10 06:30:22;;;;;;;6.17;2.67;;;3.30;99.90;;;;;;5035851;28;20193;-70
2022/01/10 06:32:48;;;;;;;5.80;2.77;;;3.40;99.90;;;;;;5045617;28;20211;-70
2022/01/10 06:35:14;;;;;;;4.93;2.60;;;3.40;99.90;;;;;;5038223;28;20185;-68
2022/01/10 06:37:40;;;;;;;3.63;2.73;;;3.40;99.90;;;;;;5037201;28;20203;-70
2022/01/10 06:40:06;;;;;;;5.17;2.63;;;3.50;99.90;;;;;;5054729;28;20290;-70
2022/01/10 06:42:32;;;;;;;5.37;2.80;;;3.50;99.90;;;;;;5036916;28;20185;-70
2022/01/10 06:44:58;;;;;;;4.97;2.60;;;3.60;99.90;;;;;;5036794;28;20173;-70
2022/01/10 06:47:24;;;;;;;7.33;2.70;;;3.60;99.90;;;;;;5040896;28;20238;-70
2022/01/10 06:49:49;;;;;;;6.47;3.30;;;3.60;99.90;;;;;;5038858;28;20192;-71
2022/01/10 06:52:18;;;;;;;9.50;3.17;;;3.70;99.90;;;;;;5039549;28;20292;-70
2022/01/10 06:54:44;;;;;;;4.53;2.73;;;3.70;99.90;;;;;;5038358;28;20188;-71
2022/01/10 06:57:12;;;;;;;3.83;2.50;;;3.70;99.90;;;;;;5039870;28;20189;-70
2022/01/10 06:59:40;;;;;;;4.73;2.83;;;3.80;99.90;;;;;;5043589;28;20197;-69
2022/01/10 07:02:08;;;;;;;4.30;2.50;;;3.80;99.90;;;;;;5037649;28;20177;-69
2022/01/10 07:04:33;;;;;;;4.33;2.60;;;3.80;99.90;;;;;;5038368;28;20205;-69
2022/01/10 07:07:01;;;;;;;4.60;2.50;;;3.90;99.90;;;;;;5037495;28;20188;-70
2022/01/10 07:09:30;;;;;;;3.40;2.60;;;3.90;99.90;;;;;;5038497;28;20188;-69
2022/01/10 07:12:00;;;;;;;5.33;2.67;;;3.90;99.90;;;;;;5037382;28;20177;-72
2022/01/10 07:14:28;;;;;;;5.33;2.47;;;3.90;99.90;;;;;;5039138;28;20185;-71
2022/01/10 07:16:56;;;;;;;3.60;2.57;;;3.90;99.90;;;;;;5037884;28;20229;-70
2022/01/10 07:19:22;;;;;;;7.10;2.40;;;3.90;99.90;;;;;;5029747;28;20237;-68
2022/01/10 07:21:51;;;;;;;3.57;2.37;;;3.90;99.90;;;;;;5036535;28;20253;-71
2022/01/10 07:24:19;;;;;;;3.63;2.53;;;3.90;99.90;;;;;;5037157;28;20429;-71
2022/01/10 07:26:50;;;;;;;4.60;2.50;;;3.90;99.90;;;;;;5040554;28;20201;-70
2022/01/10 07:29:20;;;;;;;3.80;2.50;;;3.90;99.90;;;;;;5038871;28;20223;-68
2022/01/10 07:31:45;;;;;;;4.77;2.90;;;3.90;99.90;;;;;;5033564;28;20173;-67
2022/01/10 07:34:14;;;;;;;4.50;2.63;;;3.90;99.90;;;;;;5039948;28;20169;-67
2022/01/10 07:36:42;;;;;;;8.07;3.20;;;3.90;99.90;;;;;;5036864;28;20252;-68
2022/01/10 07:39:10;;;;;;;5.90;3.03;;;4.00;99.90;;;;;;5055864;28;20201;-67
2022/01/10 07:41:36;;;;;;;4.50;2.87;;;4.00;99.90;;;;;;5039730;28;20200;-67
2022/01/10 07:44:02;;;;;;;5.30;2.80;;;4.00;99.90;;;;;;5038914;28;20254;-68
2022/01/10 07:46:27;;;;;;;7.23;2.60;;;4.00;99.90;;;;;;5037528;28;20192;-67
2022/01/10 07:48:54;;;;;;;5.20;2.73;;;4.10;99.90;;;;;;5036592;28;20228;-67
2022/01/10 07:51:24;;;;;;;3.97;2.60;;;4.10;99.90;;;;;;5041343;28;20176;-67
2022/01/10 07:53:52;;;;;;;4.80;2.80;;;4.10;99.90;;;;;;5036161;28;20180;-67
2022/01/10 07:56:18;;;;;;;3.00;2.33;;;4.10;99.90;;;;;;5049160;28;20466;-65
2022/01/10 07:58:46;;;;;;;4.73;2.60;;;4.10;99.90;;;;;;5043546;28;20356;-68
2022/01/10 08:01:14;;;;;;;5.73;2.70;;;4.20;99.90;;;;;;5033105;28;20293;-68
2022/01/10 08:03:40;;;;;;;5.40;3.17;;;4.20;99.90;;;;;;5041462;28;20173;-67
2022/01/10 08:06:07;;;;;;;6.53;3.00;;;4.20;99.90;;;;;;5037708;28;20178;-67
2022/01/10 08:08:35;;;;;;;4.00;2.60;;;4.20;99.90;;;;;;5034655;28;20276;-68
2022/01/10 08:11:03;;;;;;;5.40;2.90;;;4.20;99.90;;;;;;5032940;28;20272;-68
2022/01/10 08:13:29;;;;;;;6.30;3.17;;;4.20;99.90;;;;;;5036002;28;20211;-66
2022/01/10 08:15:57;;;;;;;6.10;3.67;;;4.20;99.90;;;;;;5035157;28;20169;-67
2022/01/10 08:18:22;;;;;;;6.27;3.53;;;4.20;99.90;;;;;;5049647;28;20197;-68
2022/01/10 08:20:48;;;;;;;4.80;3.30;;;4.20;99.90;;;;;;5039014;28;20235;-67
2022/01/10 08:23:14;;;;;;;6.53;3.83;;;4.20;99.90;;;;;;5042942;28;20239;-68
2022/01/10 08:25:40;;;;;;;6.83;3.90;;;4.20;99.90;;;;;;5036456;28;20182;-68
2022/01/10 08:28:05;;;;;;;4.97;3.70;;;4.20;99.90;;;;;;5040076;28;20178;-67
2022/01/10 08:30:35;;;;;;;7.97;4.23;;;4.20;99.90;;;;;;5039748;28;20250;-68
2022/01/10 08:33:03;;;;;;;6.27;3.27;;;4.20;99.90;;;;;;5039808;28;20211;-66
2022/01/10 08:35:31;;;;;;;5.70;3.83;;;4.20;99.90;;;;;;5039858;28;20177;-67
2022/01/10 08:37:59;;;;;;;7.40;4.00;;;4.30;99.90;;;;;;5039777;28;20219;-68
2022/01/10 08:40:25;;;;;;;6.17;3.53;;;4.30;99.90;;;;;;5038901;28;20407;-67
2022/01/10 08:42:53;;;;;;;6.23;3.67;;;4.30;99.90;;;;;;5039680;28;20334;-68
2022/01/10 08:45:21;;;;;;;6.23;3.40;;;4.30;99.90;;;;;;5026681;28;20186;-66
2022/01/10 08:47:48;;;;;;;5.10;3.40;;;4.30;99.90;;;;;;5038223;28;20199;-68
2022/01/10 08:50:14;;;;;;;6.87;4.17;;;4.40;99.90;;;;;;5039031;28;20196;-68
2022/01/10 08:52:43;;;;;;;5.90;3.77;;;4.40;99.90;;;;;;5040287;28;20173;-66
2022/01/10 08:55:09;;;;;;;6.10;3.90;;;4.50;99.90;;;;;;5038668;28;20205;-68
2022/01/10 08:57:38;;;;;;;5.27;3.23;;;4.50;99.90;;;;;;5030513;28;20185;-66
2022/01/10 09:00:07;;;;;;;7.30;3.47;;;4.50;99.90;;;;;;5034498;28;20201;-68
2022/01/10 09:02:35;;;;;;;5.67;3.67;;;4.60;99.90;;;;;;5040528;28;20188;-69
2022/01/10 09:05:01;;;;;;;5.80;3.40;;;4.60;99.90;;;;;;5038582;28;20174;-65
2022/01/10 09:07:27;;;;;;;6.03;3.47;;;4.70;99.90;;;;;;5040662;28;20191;-68
2022/01/10 09:09:55;;;;;;;6.57;3.43;;;4.70;99.90;;;;;;5044281;28;20207;-68
2022/01/10 09:12:20;;;;;;;3.70;3.10;;;4.80;99.90;;;;;;5040091;28;20180;-68
2022/01/10 09:14:46;;;;;;;5.43;3.47;;;4.90;99.90;;;;;;5039634;28;20189;-68
2022/01/10 09:17:12;;;;;;;6.47;3.57;;;5.10;99.90;;;;;;5040829;28;20213;-69
2022/01/10 09:19:38;;;;;;;6.00;3.53;;;5.20;99.90;;;;;;5041974;28;20200;-68
2022/01/10 09:22:04;;;;;;;7.87;3.83;;;5.40;99.90;;;;;;5027724;28;20199;-68
2022/01/10 09:24:30;;;;;;;7.07;4.10;;;5.50;99.90;;;;;;5039407;28;20287;-68
2022/01/10 09:26:56;;;;;;;6.70;3.50;;;5.60;99.90;;;;;;5039347;28;20197;-66
2022/01/10 09:29:25;;;;;;;6.77;3.90;;;5.70;99.90;;;;;;5039774;28;20189;-69
2022/01/10 09:31:51;;;;;;;6.00;4.03;;;5.80;99.90;;;;;;5039319;28;20214;-68
2022/01/10 09:34:19;;;;;;;8.00;4.13;;;5.90;99.90;;;;;;5042575;28;20192;-68
2022/01/10 09:36:45;;;;;;;7.83;4.20;;;5.90;99.90;;;;;;5037984;28;20208;-68
2022/01/10 09:39:13;;;;;;;6.13;3.97;;;6.00;99.90;;;;;;5039028;28;20197;-69
2022/01/10 09:41:41;;;;;;;6.47;4.00;;;6.10;99.90;;;;;;5041842;28;20204;-68
2022/01/10 09:44:07;;;;;;;7.33;4.30;;;6.20;99.90;;;;;;5037993;28;20178;-68
2022/01/10 09:46:33;;;;;;;5.60;3.60;;;6.30;99.90;;;;;;5038913;28;20180;-65
2022/01/10 09:49:02;;;;;;;5.07;3.80;;;6.40;99.90;;;;;;5042165;28;20268;-68
2022/01/10 09:51:29;;;;;;;6.30;4.00;;;6.50;99.90;;;;;;5055229;28;20239;-68
2022/01/10 09:53:59;;;;;;;6.07;3.60;;;6.60;99.90;;;;;;5039365;28;20231;-68
2022/01/10 09:56:26;;;;;;;7.67;4.00;;;6.60;99.90;;;;;;5038921;28;20181;-68
2022/01/10 09:58:53;;;;;;;5.13;3.80;;;6.70;99.90;;;;;;5038108;28;20356;-69
2022/01/10 10:01:24;;;;;;;5.43;3.93;;;6.80;99.90;;;;;;5041107;28;20177;-68
2022/01/10 10:03:50;;;;;;;6.17;3.83;;;6.90;99.90;;;;;;5037392;28;20177;-68
2022/01/10 10:06:17;;;;;;;5.17;4.00;;;6.90;99.90;;;;;;5038659;28;20185;-68
2022/01/10 10:08:43;;;;;;;6.60;3.87;;;7.00;99.90;;;;;;5040869;28;20212;-68
2022/01/10 10:11:10;;;;;;;4.93;3.63;;;7.20;99.90;;;;;;5038271;28;20181;-69
2022/01/10 10:13:54;;;;;;;7.10;4.20;;;7.30;99.90;;;;;;5056118;28;20231;-69
2022/01/10 10:16:26;;;;;;;4.63;3.57;;;7.40;99.90;;;;;;5038515;28;20264;-67
2022/01/10 10:18:52;;;;;;;5.17;3.57;;;7.40;99.90;;;;;;5037950;28;20205;-69
2022/01/10 10:21:21;;;;;;;5.73;3.67;;;7.60;99.90;;;;;;5044645;28;20249;-69
2022/01/10 10:23:49;;;;;;;7.53;3.90;;;7.70;99.90;;;;;;5037767;28;20205;-69
2022/01/10 10:26:24;;;;;;;7.87;4.37;;;7.80;99.90;;;;;;5037711;28;20178;-69
2022/01/10 10:28:54;;;;;;;7.83;3.77;;;7.80;99.90;;;;;;5035419;28;20193;-68
2022/01/10 10:31:33;;;;;;;6.40;4.33;;;7.90;99.90;;;;;;5037825;28;20284;-68
2022/01/10 10:34:05;;;;;;;4.77;3.60;;;8.00;99.90;;;;;;5040639;28;20226;-69
2022/01/10 10:36:33;;;;;;;9.20;4.37;;;8.00;99.90;;;;;;5028409;28;20398;-69
2022/01/10 10:39:06;;;;;;;7.40;4.70;;;8.10;99.90;;;;;;5051898;28;20205;-66
2022/01/10 10:41:35;;;;;;;6.60;4.10;;;8.20;99.90;;;;;;5040473;28;20200;-68
2022/01/10 10:44:01;;;;;;;7.50;4.90;;;8.30;99.90;;;;;;5036883;28;20214;-67
2022/01/10 10:46:30;;;;;;;6.70;4.37;;;8.30;99.90;;;;;;5037778;28;20177;-67
2022/01/10 10:49:03;;;;;;;9.00;4.97;;;8.40;99.90;;;;;;5036480;28;20181;-70
2022/01/10 10:51:38;;;;;;;8.17;5.00;;;8.40;99.90;;;;;;5036801;28;20223;-67
2022/01/10 10:54:16;;;;;;;7.70;5.77;;;8.50;99.90;;;;;;5054212;28;20217;-68
2022/01/10 10:56:43;;;;;;;10.97;5.73;;;8.60;99.90;;;;;;5040240;28;20223;-67
2022/01/10 10:59:13;;;;;;;9.37;5.57;;;8.60;99.90;;;;;;5021389;28;20213;-68
2022/01/10 11:01:40;;;;;;;11.87;5.70;;;8.70;99.90;;;;;;5038069;28;20259;-68
2022/01/10 11:04:09;;;;;;;11.40;6.33;;;8.80;99.90;;;;;;5041384;28;20200;-69
2022/01/10 11:06:35;;;;;;;11.37;7.27;;;8.90;99.90;;;;;;5037036;28;20196;-66
2022/01/10 11:09:09;;;;;;;12.33;7.57;;;9.00;99.90;;;;;;5020425;28;20185;-67
2022/01/10 11:11:37;;;;;;;10.47;6.77;;;9.10;99.90;;;;;;5031991;28;20195;-67
2022/01/10 11:14:06;;;;;;;10.43;6.63;;;9.10;99.90;;;;;;5035588;28;20185;-68
2022/01/10 11:16:36;;;;;;;9.47;5.80;;;9.10;99.90;;;;;;5036904;28;20178;-68
2022/01/10 11:19:14;;;;;;;10.20;6.50;;;9.10;99.90;;;;;;5036225;28;20205;-67
2022/01/10 11:21:41;;;;;;;9.73;5.60;;;9.10;99.90;;;;;;5040542;28;20196;-63
2022/01/10 11:24:07;;;;;;;8.57;5.67;;;9.10;99.90;;;;;;5039859;28;20185;-68
2022/01/10 11:26:38;;;;;;;8.60;5.20;;;9.10;99.90;;;;;;5035432;28;20185;-68
2022/01/10 11:29:08;;;;;;;9.00;5.97;;;9.10;99.90;;;;;;5035020;28;20227;-68
2022/01/10 11:31:36;;;;;;;9.10;5.80;;;9.20;99.90;;;;;;5040371;28;20188;-68
2022/01/10 11:34:05;;;;;;;10.33;5.97;;;9.20;99.90;;;;;;5036716;28;20330;-68
2022/01/10 11:36:31;;;;;;;10.83;5.53;;;9.30;99.90;;;;;;5035931;28;20205;-68
2022/01/10 11:39:08;;;;;;;10.53;6.27;;;9.40;99.90;;;;;;5037285;28;20223;-67
2022/01/10 11:41:34;;;;;;;13.00;7.20;;;9.40;99.90;;;;;;5031973;28;20184;-68
2022/01/10 11:44:04;;;;;;;12.20;6.77;;;9.50;99.90;;;;;;5038647;28;20209;-67
2022/01/10 11:46:44;;;;;;;11.77;6.67;;;9.60;99.90;;;;;;5036842;28;20174;-67
2022/01/10 11:49:12;;;;;;;10.97;7.17;;;9.70;99.90;;;;;;5036934;28;20188;-68
2022/01/10 11:51:45;;;;;;;13.07;7.03;;;9.90;99.90;;;;;;5037472;28;20205;-68
2022/01/10 11:54:26;;;;;;;11.00;6.15;;;10.10;99.90;;;;;;5057313;28;20184;-68
2022/01/10 11:56:53;;;;;;;8.35;6.43;;;10.30;99.90;;;;;;5038794;28;20187;-66
2022/01/10 11:59:25;;;;;;;9.25;6.13;;;10.50;99.90;;;;;;5036626;28;20197;-68
2022/01/10 12:01:59;;;;;;;9.05;5.95;;;10.70;99.90;;;;;;5051552;28;20187;-67
2022/01/10 12:04:31;;;;;;;10.15;6.45;;;10.90;99.90;;;;;;5033318;28;20189;-69
2022/01/10 12:06:57;;;;;;;8.52;5.82;;;11.00;99.90;;;;;;5035554;28;20196;-66
2022/01/10 12:09:28;;;;;;;9.77;6.18;;;11.10;99.90;;;;;;5036429;28;20184;-68
2022/01/10 12:11:57;;;;;;;11.73;6.80;;;11.30;99.90;;;;;;5037196;28;20268;-68
2022/01/10 12:14:28;;;;;;;11.57;6.60;;;11.40;99.90;;;;;;5035983;28;20193;-68
2022/01/10 12:16:57;;;;;;;9.63;6.05;;;11.60;99.90;;;;;;5036254;28;20378;-68
2022/01/10 12:19:28;;;;;;;9.45;6.50;;;11.60;99.90;;;;;;5050582;28;20193;-68
2022/01/10 12:21:54;;;;;;;9.20;6.07;;;11.70;99.90;;;;;;5036177;28;20197;-68
2022/01/10 12:24:22;;;;;;;11.90;5.95;;;11.80;99.90;;;;;;5040443;28;20177;-69
2022/01/10 12:26:52;;;;;;;7.28;5.53;;;11.90;99.90;;;;;;5028652;28;20343;-69
2022/01/10 12:29:17;;;;;;;11.10;5.55;;;11.90;99.90;;;;;;5024376;28;20268;-69
2022/01/10 12:31:45;;;;;;;7.60;5.85;;;11.90;99.90;;;;;;5035100;28;20272;-68
2022/01/10 12:34:15;;;;;;;8.88;5.95;;;12.00;99.90;;;;;;5031924;28;20212;-67
2022/01/10 12:36:42;;;;;;;11.10;5.97;;;12.00;99.90;;;;;;5053463;28;20173;-68
2022/01/10 12:39:21;;;;;;;7.40;4.93;;;12.00;99.90;;;;;;5035890;28;20240;-68
2022/01/10 12:41:48;;;;;;;12.73;5.63;;;12.00;99.90;;;;;;5019694;28;20204;-69
2022/01/10 12:44:16;;;;;;;9.27;5.60;;;12.00;99.90;;;;;;5036134;28;20182;-69
2022/01/10 12:46:42;;;;;;;7.95;5.18;;;12.00;99.90;;;;;;5037516;28;20181;-66
2022/01/10 12:49:12;;;;;;;7.22;5.15;;;12.00;99.90;;;;;;5053025;28;20185;-69
2022/01/10 12:51:51;;;;;;;7.40;5.03;;;12.10;99.90;;;;;;5036142;28;20185;-69
2022/01/10 12:54:29;;;;;;;10.27;6.15;;;12.10;99.90;;;;;;5036143;28;20173;-69
2022/01/10 12:56:57;;;;;;;7.72;5.25;;;12.10;99.90;;;;;;5034526;28;20193;-68
2022/01/10 12:59:27;;;;;;;10.90;5.47;;;12.10;99.90;;;;;;5035592;28;20205;-67
2022/01/10 13:01:55;;;;;;;8.38;4.72;;;12.10;99.90;;;;;;5038018;28;20216;-69
2022/01/10 13:04:25;;;;;;;10.57;5.15;;;12.10;99.90;;;;;;5035834;28;20184;-68
2022/01/10 13:06:52;;;;;;;8.00;5.68;;;12.00;99.90;;;;;;5036417;28;20216;-69
2022/01/10 13:09:19;;;;;;;10.40;6.38;;;11.90;99.90;;;;;;5054872;28;20287;-69